Time;durP1;ratioP1;P1;durP2;ratioP2;P2;SDS_P1;SDS_P2;PMS_P1;PMS_P2;Temp;Humidity;BMP_temperature;BMP_pressure;BME280_temperature;BME280_humidity;BME280_pressure;Samples;Min_cycle;Max_cycle;Signal;HPM_P1;HPM_P2
2023/01/11 00:01:41;;;;;;;12.95;7.05;;;27.10;95.20;;;;;;5127331;28;20030;-64
2023/01/11 00:04:09;;;;;;;11.15;6.78;;;27.20;95.10;;;;;;5126740;28;20031;-60
2023/01/11 00:06:35;;;;;;;11.70;6.72;;;27.20;95.00;;;;;;5126366;28;20026;-56
2023/01/11 00:09:02;;;;;;;10.40;6.20;;;27.10;94.90;;;;;;5126662;28;20036;-55
2023/01/11 00:11:34;;;;;;;12.95;6.25;;;27.20;94.90;;;;;;5126752;28;20069;-60
2023/01/11 00:14:01;;;;;;;13.13;6.65;;;27.10;94.70;;;;;;5126737;28;20095;-56
2023/01/11 00:16:28;;;;;;;9.98;5.82;;;27.20;94.70;;;;;;5126693;28;20091;-56
2023/01/11 00:18:55;;;;;;;11.65;5.95;;;27.10;94.70;;;;;;5126448;28;20026;-54
2023/01/11 00:21:25;;;;;;;11.18;6.25;;;27.10;94.70;;;;;;5107922;28;20233;-59
2023/01/11 00:23:52;;;;;;;11.00;6.20;;;27.10;94.60;;;;;;5126543;28;20035;-53
2023/01/11 00:26:18;;;;;;;12.90;6.43;;;27.10;94.60;;;;;;5126693;28;20095;-51
2023/01/11 00:28:49;;;;;;;12.25;6.30;;;27.10;94.60;;;;;;5125670;28;20040;-54
2023/01/11 00:31:19;;;;;;;10.88;5.47;;;27.10;94.60;;;;;;5118119;28;20035;-51
2023/01/11 00:33:46;;;;;;;13.07;5.68;;;26.90;94.90;;;;;;5105663;28;20069;-54
2023/01/11 00:36:12;;;;;;;12.35;6.40;;;26.60;95.30;;;;;;5103007;28;20028;-55
2023/01/11 00:38:52;;;;;;;14.45;6.20;;;26.40;95.70;;;;;;5120214;28;20015;-53
2023/01/11 00:50:09;;;;;;;12.40;5.78;;;26.10;96.90;;;;;;5121679;28;20216;-54
2023/01/11 00:52:36;;;;;;;27.70;10.20;;;26.00;96.70;;;;;;5124815;28;20298;-54
2023/01/11 00:55:06;;;;;;;30.45;12.95;;;26.00;96.50;;;;;;5126126;28;20019;-53
2023/01/11 00:57:32;;;;;;;39.50;14.85;;;25.90;96.60;;;;;;5118709;28;20076;-54
2023/01/11 01:00:16;;;;;;;28.30;11.88;;;25.90;96.50;;;;;;5118963;28;20153;-50
2023/01/11 01:02:56;;;;;;;;;;;;;;;;;;;;;
2023/01/11 01:05:23;;;;;;;16.35;8.52;;;25.90;96.30;;;;;;5125658;28;20043;-53
2023/01/11 01:08:03;;;;;;;17.27;8.00;;;25.90;96.20;;;;;;5126097;28;20060;-55
2023/01/11 01:10:32;;;;;;;16.30;7.65;;;25.90;96.20;;;;;;5125843;28;20099;-53
2023/01/11 01:15:56;;;;;;;15.35;7.20;;;25.90;96.20;;;;;;5122900;28;20031;-51
2023/01/11 01:18:23;;;;;;;13.45;6.90;;;25.90;96.30;;;;;;5094694;28;20274;-51
2023/01/11 01:20:50;;;;;;;12.60;6.65;;;25.90;96.30;;;;;;5120077;28;20062;-55
2023/01/11 01:23:17;;;;;;;14.40;7.63;;;25.90;96.40;;;;;;5107500;28;20031;-53
2023/01/11 01:26:01;;;;;;;13.35;6.93;;;25.80;96.30;;;;;;5125444;28;20027;-54
2023/01/11 01:28:54;;;;;;;13.65;6.72;;;25.80;96.40;;;;;;5125567;28;20235;-53
2023/01/11 01:31:22;;;;;;;10.45;6.47;;;25.70;96.40;;;;;;5124087;27;20050;-55
2023/01/11 01:34:07;;;;;;;15.30;7.03;;;25.70;96.30;;;;;;5109230;28;20031;-53
2023/01/11 01:36:35;;;;;;;14.32;6.95;;;25.60;96.30;;;;;;5124803;28;20027;-53
2023/01/11 01:39:04;;;;;;;12.77;7.35;;;25.60;96.30;;;;;;5121134;28;20015;-53
2023/01/11 01:41:30;;;;;;;19.48;8.95;;;25.60;96.30;;;;;;5107442;28;20047;-53
2023/01/11 01:43:59;;;;;;;16.15;7.72;;;25.60;96.30;;;;;;5098630;28;20023;-56
2023/01/11 01:46:31;;;;;;;15.63;8.98;;;25.60;96.30;;;;;;5113323;28;20046;-53
2023/01/11 01:49:15;;;;;;;15.35;10.38;;;25.60;96.30;;;;;;5097696;28;20107;-53
2023/01/11 01:51:52;;;;;;;18.65;12.57;;;25.60;96.20;;;;;;5124266;28;20296;-53
2023/01/11 01:54:29;;;;;;;17.30;8.80;;;25.60;96.30;;;;;;5115559;28;20037;-56
2023/01/11 01:57:01;;;;;;;14.80;8.05;;;25.60;96.40;;;;;;5108481;28;20238;-59
2023/01/11 01:59:32;;;;;;;;;;;25.60;96.50;;;;;;5105397;28;20216;-53
2023/01/11 02:01:59;;;;;;;12.55;7.00;;;25.50;96.40;;;;;;5104949;28;19911;-53
2023/01/11 02:04:40;;;;;;;14.75;7.45;;;25.50;96.50;;;;;;5109161;28;20268;-57
2023/01/11 02:07:12;;;;;;;17.58;7.88;;;25.50;96.50;;;;;;5117871;28;20026;-55
2023/01/11 02:10:05;;;;;;;14.05;7.43;;;25.50;96.60;;;;;;5124669;28;20027;-53
2023/01/11 02:12:37;;;;;;;15.30;7.28;;;25.50;96.50;;;;;;5124828;28;20212;-49
2023/01/11 02:15:12;;;;;;;18.55;7.55;;;25.50;96.50;;;;;;5130591;28;20051;-58
2023/01/11 02:18:22;;;;;;;;;;;;;;;;;;;;;
2023/01/11 02:21:28;;;;;;;17.98;10.30;;;25.50;96.50;;;;;;5089857;28;20078;-59
2023/01/11 02:24:09;;;;;;;19.67;13.82;;;25.40;96.50;;;;;;5090809;28;20039;-53
2023/01/11 02:27:13;;;;;;;26.73;17.70;;;25.40;96.50;;;;;;5131804;28;20046;-52
2023/01/11 02:30:28;;;;;;;40.65;31.33;;;25.40;96.70;;;;;;5131115;28;20086;-52
2023/01/11 02:33:10;;;;;;;48.92;42.05;;;25.30;96.50;;;;;;5121259;28;20327;-53
2023/01/11 02:35:54;;;;;;;39.88;35.47;;;25.30;96.50;;;;;;5128418;28;20207;-56
2023/01/11 02:38:44;;;;;;;31.70;26.15;;;25.40;96.50;;;;;;5119751;28;20094;-55
2023/01/11 02:45:00;;;;;;;37.90;28.15;;;25.70;95.90;;;;;;5115735;28;20046;-57
2023/01/11 02:47:39;;;;;;;34.75;28.30;;;25.80;95.60;;;;;;5110806;28;20034;-52
2023/01/11 02:50:18;;;;;;;31.92;26.50;;;25.80;95.50;;;;;;5110345;28;20012;-50
2023/01/11 02:52:44;;;;;;;30.25;23.08;;;25.90;95.40;;;;;;5110494;28;20043;-53
2023/01/11 02:55:14;;;;;;;21.95;16.83;;;26.00;95.40;;;;;;5092604;28;20016;-50
2023/01/11 02:57:43;;;;;;;23.00;16.67;;;26.00;95.30;;;;;;5111073;28;20024;-51
2023/01/11 03:00:12;;;;;;;19.85;14.15;;;26.00;95.20;;;;;;5111138;28;20051;-53
2023/01/11 03:02:39;;;;;;;20.90;14.45;;;26.10;95.20;;;;;;5110898;28;20036;-50
2023/01/11 03:05:14;;;;;;;20.90;12.32;;;26.10;95.10;;;;;;5110485;28;20027;-51
2023/01/11 03:08:07;;;;;;;15.73;11.05;;;26.10;95.00;;;;;;5110524;28;20032;-53
2023/01/11 03:14:35;;;;;;;18.38;11.70;;;26.10;94.90;;;;;;5046836;28;20151;-52
2023/01/11 03:17:29;;;;;;;17.17;10.93;;;26.10;94.90;;;;;;5110456;28;20024;-52
2023/01/11 03:20:21;;;;;;;19.52;11.55;;;26.10;94.90;;;;;;5110208;28;20032;-53
2023/01/11 03:23:06;;;;;;;21.23;13.70;;;26.10;94.80;;;;;;5078907;28;20048;-50
2023/01/11 03:26:11;;;;;;;20.30;14.80;;;26.10;94.80;;;;;;5108009;28;20039;-51
2023/01/11 03:29:14;;;;;;;18.73;14.77;;;26.10;94.80;;;;;;5107083;28;20031;-54
2023/01/11 03:32:17;;;;;;;23.27;17.08;;;26.10;94.70;;;;;;5064533;28;20415;-53
2023/01/11 03:35:07;;;;;;;21.02;16.33;;;26.10;94.70;;;;;;5065833;28;20052;-54
2023/01/11 03:37:41;;;;;;;18.70;12.25;;;26.10;94.70;;;;;;5072255;28;20054;-57
2023/01/11 03:40:15;;;;;;;17.65;9.93;;;26.10;94.60;;;;;;5084297;28;20092;-52
2023/01/11 03:45:34;;;;;;;15.05;7.70;;;26.10;94.60;;;;;;5084487;28;20196;-54
2023/01/11 03:48:04;;;;;;;17.58;8.13;;;26.10;94.60;;;;;;5084619;28;20028;-53
2023/01/11 03:50:33;;;;;;;14.18;7.88;;;26.10;94.60;;;;;;5080319;28;20030;-54
2023/01/11 03:53:04;;;;;;;14.48;7.57;;;26.10;94.50;;;;;;5080967;28;20086;-51
2023/01/11 03:55:37;;;;;;;13.90;7.10;;;26.10;94.50;;;;;;5084384;28;20052;-52
2023/01/11 03:58:03;;;;;;;15.90;7.40;;;26.10;94.50;;;;;;5084457;28;20108;-61
2023/01/11 04:00:31;;;;;;;13.00;7.28;;;26.10;94.40;;;;;;5084273;28;20128;-52
2023/01/11 04:03:02;;;;;;;13.07;6.97;;;26.10;94.40;;;;;;5111109;28;20031;-53
2023/01/11 04:05:29;;;;;;;15.52;7.43;;;26.10;94.30;;;;;;5125768;28;20044;-53
2023/01/11 04:07:58;;;;;;;11.52;7.35;;;26.20;94.30;;;;;;5126700;28;20027;-53
2023/01/11 04:10:24;;;;;;;12.75;7.60;;;26.20;94.30;;;;;;5126612;28;20249;-53
2023/01/11 04:12:51;;;;;;;14.68;6.70;;;26.20;94.30;;;;;;5126511;28;20311;-55
2023/01/11 04:15:17;;;;;;;14.82;6.70;;;26.20;94.30;;;;;;5126589;28;20023;-55
2023/01/11 04:17:44;;;;;;;11.55;6.65;;;26.20;94.20;;;;;;5119138;28;20095;-51
2023/01/11 04:20:11;;;;;;;11.35;6.15;;;26.20;94.20;;;;;;5121409;28;20354;-53
2023/01/11 04:22:38;;;;;;;14.05;6.60;;;26.20;94.20;;;;;;5122917;28;20095;-53
2023/01/11 04:25:05;;;;;;;14.35;6.65;;;26.20;94.20;;;;;;5114627;28;20095;-55
2023/01/11 04:27:31;;;;;;;12.32;6.10;;;26.20;94.10;;;;;;5110541;28;20328;-52
2023/01/11 04:29:58;;;;;;;12.48;7.00;;;26.20;94.10;;;;;;5103964;28;20158;-53
2023/01/11 04:32:25;;;;;;;12.63;7.40;;;26.20;94.10;;;;;;5104575;28;20228;-54
2023/01/11 04:34:53;;;;;;;14.05;7.63;;;26.20;94.10;;;;;;5116194;28;20031;-52
2023/01/11 04:37:19;;;;;;;17.35;7.57;;;26.20;94.00;;;;;;5111722;28;20035;-54
2023/01/11 04:39:46;;;;;;;14.40;7.25;;;26.20;94.00;;;;;;5103913;28;20020;-54
2023/01/11 04:42:25;;;;;;;12.10;6.38;;;26.20;94.10;;;;;;5103341;28;20028;-55
2023/01/11 04:44:55;;;;;;;11.95;6.50;;;26.20;94.10;;;;;;5105829;28;20024;-59
2023/01/11 04:47:25;;;;;;;12.73;6.57;;;26.10;94.00;;;;;;5118295;28;20046;-54
2023/01/11 04:49:56;;;;;;;12.63;6.55;;;26.10;94.10;;;;;;5107410;28;20095;-52
2023/01/11 04:52:43;;;;;;;13.27;7.07;;;26.10;94.10;;;;;;5125332;28;20051;-52
2023/01/11 04:55:22;;;;;;;21.60;8.15;;;26.10;94.10;;;;;;5125586;28;20022;-58
2023/01/11 04:58:01;;;;;;;;;;;;;;;;;;;;;
2023/01/11 05:00:42;;;;;;;16.05;7.28;;;26.10;94.20;;;;;;5121240;28;20059;-54
2023/01/11 05:03:14;;;;;;;15.40;6.57;;;26.20;94.20;;;;;;5125977;28;20083;-57
2023/01/11 05:05:56;;;;;;;13.02;6.97;;;26.20;94.30;;;;;;5125705;28;20035;-53
2023/01/11 05:08:31;;;;;;;11.85;6.30;;;26.10;94.30;;;;;;5123083;28;20034;-52
2023/01/11 05:11:01;;;;;;;14.57;6.85;;;26.20;94.40;;;;;;5108084;28;20065;-55
2023/01/11 05:13:42;;;;;;;16.50;6.95;;;26.20;94.40;;;;;;5125509;28;20354;-52
2023/01/11 05:16:27;;;;;;;11.43;6.55;;;26.10;94.40;;;;;;5126078;28;20027;-55
2023/01/11 05:18:56;;;;;;;12.30;6.53;;;26.20;94.50;;;;;;5125882;28;20020;-53
2023/01/11 05:24:29;;;;;;;11.63;6.30;;;26.20;94.50;;;;;;5087586;28;20096;-52
2023/01/11 05:27:29;;;;;;;12.93;6.07;;;26.20;94.30;;;;;;5122609;28;20095;-55
2023/01/11 05:30:20;;;;;;;10.35;5.80;;;26.10;94.10;;;;;;5107127;28;20278;-53
2023/01/11 05:32:47;;;;;;;12.95;5.82;;;26.20;94.00;;;;;;5124760;28;20031;-52
2023/01/11 05:35:13;;;;;;;14.13;6.30;;;26.20;93.90;;;;;;5125282;28;20028;-52
2023/01/11 05:37:57;;;;;;;10.88;6.15;;;26.10;93.80;;;;;;5126262;28;20022;-52
2023/01/11 05:40:23;;;;;;;11.60;5.70;;;26.10;93.80;;;;;;5041756;28;20337;-54
2023/01/11 05:42:50;;;;;;;12.05;5.97;;;26.10;93.70;;;;;;5109281;28;20211;-50
2023/01/11 05:45:30;;;;;;;11.70;6.10;;;26.10;93.70;;;;;;5123228;28;20015;-50
2023/01/11 05:47:58;;;;;;;10.52;5.70;;;26.10;93.80;;;;;;5112096;28;20031;-53
2023/01/11 05:50:28;;;;;;;12.73;6.03;;;26.10;93.80;;;;;;5123134;28;20091;-51
2023/01/11 05:52:55;;;;;;;11.00;5.90;;;26.10;93.80;;;;;;5123184;28;20090;-52
2023/01/11 05:55:22;;;;;;;12.35;6.63;;;26.10;93.90;;;;;;5123185;28;20022;-50
2023/01/11 05:57:49;;;;;;;11.45;5.95;;;26.10;93.90;;;;;;5123702;28;20047;-56
2023/01/11 06:00:16;;;;;;;12.05;5.78;;;26.10;93.90;;;;;;5124550;28;20043;-57
2023/01/11 06:02:43;;;;;;;12.15;6.22;;;26.10;94.00;;;;;;5124403;28;20053;-60
2023/01/11 06:05:10;;;;;;;12.77;5.57;;;26.10;94.30;;;;;;5124851;28;20093;-60
2023/01/11 06:07:39;;;;;;;10.60;5.60;;;26.10;94.10;;;;;;5123847;28;20026;-60
2023/01/11 06:10:10;;;;;;;11.95;5.43;;;26.10;94.10;;;;;;5105524;28;20040;-61
2023/01/11 06:12:36;;;;;;;18.23;5.70;;;26.10;94.10;;;;;;5124360;28;20030;-61
2023/01/11 06:15:03;;;;;;;14.73;6.38;;;26.10;94.10;;;;;;5124948;28;20027;-60
2023/01/11 06:17:30;;;;;;;10.30;5.45;;;26.10;94.10;;;;;;5124345;28;20023;-61
2023/01/11 06:19:56;;;;;;;10.02;5.20;;;26.10;94.10;;;;;;5124670;28;20047;-60
2023/01/11 06:22:23;;;;;;;11.20;5.68;;;26.10;94.10;;;;;;5124534;28;20059;-60
2023/01/11 06:24:50;;;;;;;12.20;6.13;;;26.10;94.10;;;;;;5124659;28;20028;-60
2023/01/11 06:27:17;;;;;;;13.45;6.45;;;26.10;94.00;;;;;;5124372;28;20020;-58
2023/01/11 06:29:43;;;;;;;13.05;5.90;;;26.10;94.00;;;;;;5124305;28;20052;-57
2023/01/11 06:32:10;;;;;;;11.23;5.75;;;26.10;94.00;;;;;;5124156;28;20016;-55
2023/01/11 06:34:37;;;;;;;13.32;6.47;;;26.10;94.00;;;;;;5124606;28;20050;-58
2023/01/11 06:37:03;;;;;;;13.20;6.28;;;26.10;93.90;;;;;;5123900;28;20038;-59
2023/01/11 06:39:30;;;;;;;12.65;6.03;;;26.10;93.90;;;;;;5124367;28;20027;-57
2023/01/11 06:41:56;;;;;;;12.45;5.88;;;26.10;93.80;;;;;;5124074;28;20027;-52
2023/01/11 06:44:23;;;;;;;11.55;5.93;;;26.10;93.80;;;;;;5124197;28;20028;-52
2023/01/11 06:46:49;;;;;;;9.82;6.00;;;26.10;93.80;;;;;;5124098;28;20020;-50
2023/01/11 06:49:16;;;;;;;11.85;5.65;;;26.10;93.80;;;;;;5112265;28;20047;-50
2023/01/11 06:51:42;;;;;;;15.23;5.90;;;26.10;93.70;;;;;;5117608;28;20023;-50
2023/01/11 06:54:09;;;;;;;12.75;5.55;;;26.10;93.70;;;;;;5110014;28;20232;-51
2023/01/11 06:56:36;;;;;;;10.40;5.68;;;26.10;93.70;;;;;;5103509;28;20328;-50
2023/01/11 06:59:02;;;;;;;10.10;5.95;;;26.10;93.60;;;;;;5103559;28;20028;-51
2023/01/11 07:01:31;;;;;;;10.00;5.47;;;26.10;93.50;;;;;;5115175;28;20028;-52
2023/01/11 07:03:57;;;;;;;11.40;5.68;;;26.10;93.40;;;;;;5127147;28;20027;-52
2023/01/11 07:06:24;;;;;;;13.27;5.47;;;26.10;93.40;;;;;;5113594;28;20035;-53
2023/01/11 07:08:53;;;;;;;12.70;5.75;;;26.10;93.40;;;;;;5118358;28;20042;-60
2023/01/11 07:11:20;;;;;;;9.88;5.60;;;26.10;93.40;;;;;;5127633;28;20054;-50
2023/01/11 07:13:46;;;;;;;11.50;6.07;;;26.10;93.30;;;;;;5127446;28;20032;-49
2023/01/11 07:16:13;;;;;;;12.25;5.63;;;26.10;93.30;;;;;;5126529;27;20038;-51
2023/01/11 07:18:39;;;;;;;10.13;5.75;;;26.10;93.30;;;;;;5109226;27;20028;-51
2023/01/11 07:21:06;;;;;;;10.10;5.35;;;26.10;93.30;;;;;;5107043;28;20087;-51
2023/01/11 07:23:32;;;;;;;13.82;5.65;;;26.10;93.40;;;;;;5107198;28;20047;-52
2023/01/11 07:25:59;;;;;;;16.90;6.18;;;26.10;93.40;;;;;;5124442;28;20322;-53
2023/01/11 07:28:27;;;;;;;9.75;6.30;;;26.10;93.50;;;;;;5118311;28;20032;-52
2023/01/11 07:30:53;;;;;;;12.25;6.00;;;26.10;93.50;;;;;;5112123;28;20032;-52
2023/01/11 07:33:20;;;;;;;12.52;5.57;;;26.10;93.50;;;;;;5110540;27;20020;-48
2023/01/11 07:35:48;;;;;;;15.05;5.30;;;26.10;93.60;;;;;;5106817;28;20024;-49
2023/01/11 07:38:15;;;;;;;11.27;5.50;;;26.10;93.50;;;;;;5106738;28;20306;-52
2023/01/11 07:40:41;;;;;;;12.00;5.88;;;26.10;93.60;;;;;;5106934;28;20038;-50
2023/01/11 07:43:13;;;;;;;10.95;5.65;;;26.10;93.50;;;;;;5106987;28;20028;-51
2023/01/11 07:45:42;;;;;;;11.90;5.65;;;26.10;93.50;;;;;;5127029;28;20035;-53
2023/01/11 07:48:10;;;;;;;11.27;4.78;;;26.10;93.50;;;;;;5126967;28;20140;-51
2023/01/11 07:50:39;;;;;;;8.68;4.75;;;26.10;93.40;;;;;;5126762;28;20223;-53
2023/01/11 07:53:07;;;;;;;11.50;5.38;;;26.10;93.40;;;;;;5126850;28;20076;-52
2023/01/11 07:55:34;;;;;;;10.00;5.13;;;26.10;93.40;;;;;;5126992;28;20055;-55
2023/01/11 07:58:01;;;;;;;9.13;4.88;;;26.10;93.30;;;;;;5126598;28;20012;-51
2023/01/11 08:00:29;;;;;;;11.45;5.00;;;26.10;93.20;;;;;;5126703;28;20031;-54
2023/01/11 08:02:56;;;;;;;10.52;4.88;;;26.20;93.20;;;;;;5107451;28;20035;-51
2023/01/11 08:05:23;;;;;;;7.35;4.40;;;26.20;93.00;;;;;;5105970;28;20055;-53
2023/01/11 08:07:49;;;;;;;7.35;4.47;;;26.20;93.00;;;;;;5106177;28;20039;-55
2023/01/11 08:10:16;;;;;;;6.57;3.90;;;26.20;92.90;;;;;;5106041;28;20027;-57
2023/01/11 08:15:33;;;;;;;7.68;3.80;;;26.20;92.90;;;;;;5116326;28;20051;-57
2023/01/11 08:18:01;;;;;;;6.38;3.88;;;26.20;92.80;;;;;;5124723;28;20016;-59
2023/01/11 08:20:28;;;;;;;8.23;3.72;;;26.20;92.80;;;;;;5125617;28;20051;-60
2023/01/11 08:22:55;;;;;;;6.28;3.80;;;26.20;92.70;;;;;;5125395;28;20095;-59
2023/01/11 08:25:22;;;;;;;8.18;3.50;;;26.20;92.60;;;;;;5125604;28;20028;-51
2023/01/11 08:27:49;;;;;;;8.30;3.58;;;26.10;92.60;;;;;;5126326;28;20057;-52
2023/01/11 08:30:15;;;;;;;9.00;3.70;;;26.10;92.60;;;;;;5124830;28;20311;-47
2023/01/11 08:32:42;;;;;;;5.88;3.50;;;26.10;92.60;;;;;;5125907;28;20031;-50
2023/01/11 08:35:09;;;;;;;7.57;3.20;;;26.10;92.60;;;;;;5126122;28;20027;-50
2023/01/11 08:37:35;;;;;;;4.78;3.50;;;26.10;92.50;;;;;;5125996;28;20019;-52
2023/01/11 08:40:02;;;;;;;8.15;3.35;;;26.10;92.50;;;;;;5125821;28;20023;-49
2023/01/11 08:42:29;;;;;;;6.43;3.75;;;26.10;92.60;;;;;;5125938;28;20032;-49
2023/01/11 08:44:56;;;;;;;6.47;3.38;;;26.10;92.60;;;;;;5124988;28;20054;-49
2023/01/11 08:47:22;;;;;;;7.95;3.50;;;26.10;92.70;;;;;;5124747;28;20208;-50
2023/01/11 08:49:49;;;;;;;5.82;3.08;;;26.10;92.70;;;;;;5124243;28;20027;-51
2023/01/11 08:52:15;;;;;;;5.22;3.08;;;26.10;92.70;;;;;;5122629;28;20047;-59
2023/01/11 08:54:42;;;;;;;5.50;2.85;;;26.10;92.60;;;;;;5125424;28;20023;-60
2023/01/11 08:57:09;;;;;;;6.40;2.92;;;26.10;92.50;;;;;;5107627;28;20031;-60
2023/01/11 08:59:36;;;;;;;5.22;3.15;;;26.10;92.50;;;;;;5125771;28;20035;-59
2023/01/11 09:02:05;;;;;;;4.63;2.80;;;26.10;92.50;;;;;;5124970;28;20024;-60
2023/01/11 09:04:32;;;;;;;6.63;3.17;;;26.10;92.50;;;;;;5124922;28;20072;-61
2023/01/11 09:07:00;;;;;;;6.35;3.17;;;26.10;92.50;;;;;;5125837;28;20039;-59
2023/01/11 09:09:26;;;;;;;6.40;3.00;;;26.10;92.50;;;;;;5125317;28;20030;-60
2023/01/11 09:11:55;;;;;;;6.78;3.33;;;26.10;92.50;;;;;;5125846;28;20034;-54
2023/01/11 09:14:24;;;;;;;6.65;3.60;;;26.10;92.50;;;;;;5125305;28;20034;-51
2023/01/11 09:16:52;;;;;;;5.53;3.45;;;26.10;92.50;;;;;;5125522;28;20034;-46
2023/01/11 09:19:19;;;;;;;7.03;3.42;;;26.10;92.60;;;;;;5125191;28;20043;-49
2023/01/11 09:21:45;;;;;;;7.30;3.70;;;26.10;92.60;;;;;;5125316;28;20351;-45
2023/01/11 09:24:14;;;;;;;5.75;4.00;;;26.10;92.60;;;;;;5124366;28;20050;-51
2023/01/11 09:26:42;;;;;;;8.43;4.10;;;26.10;92.70;;;;;;5124495;28;20304;-49
2023/01/11 09:29:09;;;;;;;8.10;4.82;;;26.10;92.70;;;;;;5124775;28;20328;-50
2023/01/11 09:31:36;;;;;;;7.70;4.85;;;26.10;92.80;;;;;;5123938;28;20134;-54
2023/01/11 09:34:03;;;;;;;11.50;5.70;;;26.10;92.80;;;;;;5124951;28;20091;-48
2023/01/11 09:36:31;;;;;;;9.20;5.80;;;26.10;92.80;;;;;;5124778;28;20023;-46
2023/01/11 09:39:00;;;;;;;10.93;5.97;;;26.10;92.80;;;;;;5124761;28;20216;-46
2023/01/11 09:41:35;;;;;;;8.73;5.95;;;26.20;92.90;;;;;;5125081;28;20330;-52
2023/01/11 09:44:15;;;;;;;10.30;6.30;;;26.10;92.90;;;;;;5123983;28;20095;-55
2023/01/11 09:46:49;;;;;;;9.40;5.72;;;26.20;92.90;;;;;;5124325;28;20023;-49
2023/01/11 09:49:30;;;;;;;8.15;5.70;;;26.20;92.90;;;;;;5121740;28;20028;-49
2023/01/11 09:52:23;;;;;;;9.23;6.32;;;26.20;92.90;;;;;;5110849;28;20106;-50
2023/01/11 09:54:50;;;;;;;9.45;5.90;;;26.20;92.80;;;;;;5116510;28;20322;-54
2023/01/11 09:57:50;;;;;;;11.00;6.28;;;26.20;92.80;;;;;;5123986;28;20311;-53
2023/01/11 10:00:54;;;;;;;9.68;5.75;;;26.20;92.80;;;;;;5086809;28;20043;-51
2023/01/11 10:03:21;;;;;;;10.45;5.60;;;26.20;92.70;;;;;;5124229;28;20250;-53
2023/01/11 10:06:05;;;;;;;8.90;6.22;;;26.10;92.70;;;;;;5123746;28;20038;-49
2023/01/11 10:09:03;;;;;;;8.40;5.00;;;26.20;92.70;;;;;;5124215;28;20095;-50
2023/01/11 10:11:37;;;;;;;7.50;5.00;;;26.20;92.60;;;;;;5124001;28;20038;-52
2023/01/11 10:14:29;;;;;;;7.97;4.63;;;26.20;92.60;;;;;;5109558;28;20019;-51
2023/01/11 10:17:04;;;;;;;7.95;4.50;;;26.10;92.40;;;;;;5119861;28;20092;-51
2023/01/11 10:19:40;;;;;;;7.78;4.07;;;26.10;92.50;;;;;;5123535;28;20031;-52
2023/01/11 10:22:10;;;;;;;7.82;4.57;;;26.10;92.30;;;;;;5123678;28;20027;-51
2023/01/11 10:25:17;;;;;;;6.32;4.25;;;26.10;92.30;;;;;;5123113;28;20023;-58
2023/01/11 10:28:03;;;;;;;7.15;4.25;;;26.20;92.40;;;;;;5002404;28;20046;-51
2023/01/11 10:31:02;;;;;;;6.82;4.05;;;26.20;92.40;;;;;;5093116;28;20063;-49
2023/01/11 10:39:16;;;;;;;6.38;3.97;;;26.10;92.00;;;;;;5128376;28;20024;-50
2023/01/11 10:41:56;;;;;;;6.38;3.35;;;26.10;92.10;;;;;;5128537;28;20024;-50
2023/01/11 10:44:40;;;;;;;8.38;3.58;;;26.20;92.10;;;;;;5128003;28;20031;-52
2023/01/11 10:47:15;;;;;;;4.90;3.30;;;26.10;92.20;;;;;;5128577;28;20030;-59
2023/01/11 10:49:57;;;;;;;7.57;3.47;;;26.10;92.00;;;;;;5127963;28;20365;-54
2023/01/11 10:52:53;;;;;;;5.70;3.28;;;26.10;92.00;;;;;;5126109;28;20318;-54
2023/01/11 10:55:32;;;;;;;5.85;2.97;;;26.10;92.10;;;;;;5017151;28;20046;-50
2023/01/11 10:58:23;;;;;;;6.25;3.38;;;26.10;92.00;;;;;;5122703;28;20016;-51
2023/01/11 11:01:23;;;;;;;4.28;2.75;;;26.10;92.10;;;;;;5123232;28;20032;-52
2023/01/11 11:04:03;;;;;;;6.85;3.13;;;26.10;91.90;;;;;;5125683;28;20023;-49
2023/01/11 11:06:39;;;;;;;7.47;3.20;;;26.10;91.90;;;;;;5124210;28;20123;-50
2023/01/11 11:09:37;;;;;;;4.80;2.90;;;26.10;92.00;;;;;;5125403;28;20090;-50
2023/01/11 11:12:22;;;;;;;6.20;2.60;;;26.10;91.90;;;;;;5093852;28;20055;-55
2023/01/11 11:14:50;;;;;;;4.40;2.85;;;26.10;91.80;;;;;;5125540;28;20034;-52
2023/01/11 11:17:32;;;;;;;3.60;2.65;;;26.10;91.80;;;;;;5121981;28;20035;-51
2023/01/11 11:19:58;;;;;;;6.72;2.60;;;26.10;91.60;;;;;;5126879;28;20043;-52
2023/01/11 11:22:25;;;;;;;4.20;2.50;;;26.20;91.80;;;;;;5118474;28;20043;-53
2023/01/11 11:24:58;;;;;;;4.50;2.75;;;26.10;91.80;;;;;;5106902;28;20022;-52
2023/01/11 11:27:45;;;;;;;4.57;2.60;;;26.20;91.70;;;;;;5107309;28;20073;-51
2023/01/11 11:30:24;;;;;;;4.78;2.67;;;26.20;91.70;;;;;;5115242;28;20046;-52
2023/01/11 11:33:00;;;;;;;4.72;2.60;;;26.10;91.60;;;;;;5123819;28;20020;-53
2023/01/11 11:35:58;;;;;;;5.03;2.58;;;26.20;91.60;;;;;;5123796;28;20047;-52
2023/01/11 11:38:30;;;;;;;6.93;3.20;;;26.20;91.60;;;;;;5121120;27;20064;-56
2023/01/11 11:41:03;;;;;;;;;;;26.20;91.40;;;;;;5148029;27;20176;-57
2023/01/11 11:43:32;;;;;;;4.75;2.80;;;26.20;91.60;;;;;;5147733;27;19910;-59
2023/01/11 11:46:00;;;;;;;5.03;2.78;;;26.20;91.70;;;;;;5147220;27;20203;-55
2023/01/11 11:48:30;;;;;;;3.90;2.63;;;26.20;91.60;;;;;;5145824;27;20072;-57
2023/01/11 11:51:04;;;;;;;5.35;2.67;;;26.20;91.60;;;;;;5145720;27;20030;-54
2023/01/11 11:53:56;;;;;;;4.78;3.38;;;26.20;91.50;;;;;;5145792;27;20026;-53
2023/01/11 11:56:36;;;;;;;4.57;2.83;;;26.20;91.40;;;;;;5146147;27;20243;-56
2023/01/11 11:59:15;;;;;;;3.80;3.00;;;26.20;91.60;;;;;;5145558;27;20084;-54
2023/01/11 12:01:45;;;;;;;6.85;3.00;;;26.20;91.30;;;;;;5146112;27;20065;-57
2023/01/11 12:04:15;;;;;;;6.25;3.35;;;26.20;91.40;;;;;;5147329;27;20031;-59
2023/01/11 12:06:43;;;;;;;8.18;3.50;;;26.20;91.50;;;;;;5147815;27;20076;-52
2023/01/11 12:09:16;;;;;;;5.57;3.30;;;26.20;91.50;;;;;;5147335;27;20030;-56
2023/01/11 12:11:47;;;;;;;6.70;3.63;;;26.20;91.50;;;;;;5147322;27;20058;-58
2023/01/11 12:14:22;;;;;;;7.32;3.85;;;26.20;91.50;;;;;;5147170;27;20030;-55
2023/01/11 12:16:49;;;;;;;5.35;3.30;;;26.20;91.70;;;;;;5147332;27;20023;-57
2023/01/11 12:19:25;;;;;;;6.18;3.60;;;26.20;91.80;;;;;;5147130;27;20030;-61
2023/01/11 12:21:52;;;;;;;6.97;3.58;;;26.20;91.70;;;;;;5146978;27;20054;-64
2023/01/11 12:24:19;;;;;;;4.78;3.13;;;26.30;91.70;;;;;;5147116;27;20327;-65
2023/01/11 12:27:03;;;;;;;5.05;3.08;;;26.20;91.60;;;;;;5147464;27;20023;-64
2023/01/11 12:29:32;;;;;;;8.25;3.90;;;26.30;91.70;;;;;;5147067;27;20035;-65
2023/01/11 12:32:15;;;;;;;5.53;3.45;;;26.30;91.70;;;;;;5147396;27;20094;-65
2023/01/11 12:34:50;;;;;;;;;;;26.30;91.70;;;;;;5147063;27;20294;-64
2023/01/11 12:37:23;;;;;;;6.40;3.40;;;26.30;91.80;;;;;;5147248;27;19914;-56
2023/01/11 12:40:17;;;;;;;7.05;3.75;;;26.30;91.80;;;;;;5146751;27;20060;-59
2023/01/11 12:42:55;;;;;;;5.63;3.80;;;26.30;91.80;;;;;;5146611;27;20060;-59
2023/01/11 12:45:29;;;;;;;5.68;3.83;;;26.30;91.80;;;;;;5146411;27;20070;-57
2023/01/11 12:48:17;;;;;;;7.00;4.47;;;26.30;92.00;;;;;;5146574;27;20030;-56
2023/01/11 12:51:21;;;;;;;8.30;5.13;;;26.30;92.00;;;;;;5146435;27;20104;-56
2023/01/11 12:54:13;;;;;;;7.93;5.60;;;26.30;92.00;;;;;;5146282;27;20030;-57
2023/01/11 12:57:02;;;;;;;7.22;4.80;;;26.30;92.10;;;;;;5146716;27;20098;-56
2023/01/11 12:59:53;;;;;;;6.93;5.50;;;26.30;92.10;;;;;;5145005;27;20023;-57
2023/01/11 13:02:38;;;;;;;7.85;4.88;;;26.30;92.00;;;;;;5146869;27;20058;-55
2023/01/11 13:05:33;;;;;;;10.85;5.00;;;26.30;92.10;;;;;;5146102;27;20335;-57
2023/01/11 13:08:28;;;;;;;8.20;5.28;;;26.40;92.10;;;;;;5146065;27;20022;-55
2023/01/11 13:11:06;;;;;;;9.90;5.32;;;26.40;92.10;;;;;;5145944;27;20027;-56
2023/01/11 13:13:58;;;;;;;9.80;4.97;;;26.40;92.20;;;;;;5145910;27;20034;-55
2023/01/11 13:16:36;;;;;;;10.20;4.97;;;26.40;92.10;;;;;;5133542;27;20050;-58
2023/01/11 13:19:18;;;;;;;323.75;36.90;;;26.50;92.20;;;;;;5145813;27;20027;-53
2023/01/11 13:21:52;;;;;;;110.07;15.55;;;26.40;92.30;;;;;;5145699;27;20031;-56
2023/01/11 13:24:32;;;;;;;81.82;12.05;;;26.50;92.30;;;;;;5146275;27;20034;-56
2023/01/11 13:27:05;;;;;;;78.55;13.05;;;26.50;92.40;;;;;;5145714;27;20035;-58
2023/01/11 13:29:39;;;;;;;72.47;11.93;;;26.50;92.40;;;;;;5145493;27;20039;-55
2023/01/11 13:32:13;;;;;;;63.67;11.10;;;26.50;92.40;;;;;;5145499;27;20235;-52
2023/01/11 13:34:57;;;;;;;228.57;30.13;;;26.50;92.40;;;;;;5145480;27;20023;-58
2023/01/11 13:37:33;;;;;;;116.80;19.88;;;26.60;92.40;;;;;;5145643;27;20056;-55
2023/01/11 13:40:27;;;;;;;111.70;18.85;;;26.60;92.30;;;;;;5145535;27;20052;-58
2023/01/11 13:43:04;;;;;;;109.80;17.23;;;26.60;92.30;;;;;;5145726;27;20252;-60
2023/01/11 13:45:38;;;;;;;66.15;13.73;;;26.60;92.30;;;;;;5146055;27;20354;-57
2023/01/11 13:48:18;;;;;;;62.92;12.82;;;26.70;92.30;;;;;;5145516;27;20015;-57
2023/01/11 13:50:53;;;;;;;73.72;14.02;;;26.70;92.30;;;;;;5144383;27;20319;-58
2023/01/11 13:53:49;;;;;;;65.68;13.98;;;26.70;92.30;;;;;;5145787;27;20041;-56